Lisa IV — 9HA2872 — position and weather

sailwx.info

Track history (hours):
 
Tides and Currents Weather Stations Pressure Air Temp Water Temp Dewpoint Dewpoint Depression Visibility Wind Speed Wind Dir Waves Ship Positions

Lisa IV

Last reported at 2018-May-23 15:56 UTC. Time now 2018-May-24 10:07 UTC.
Position N 43°49' E 007°47'.

Length 48 m; draft 1.6 m.

Type: Pleasure craft. MMSI: 256499000.

Date/timePositionNaut miles runAvg speedWind from/ knotsBaromVisibWave heightAir tempDewpointWater temp
2018-May-23 15:56N 43°49' E 007°47'36 0.7
2018-May-21 15:23N 43°32' E 007°04'2 4.8
2018-May-21 15:00N 43°32' E 007°02'0 0.0
2018-May-21 14:30N 43°32' E 007°02'0 0.0
2018-May-21 14:00N 43°32' E 007°02'0 0.0
2018-May-21 13:30N 43°32' E 007°02'0 0.0
2018-May-21 13:00N 43°32' E 007°02'0 0.0
2018-May-21 12:30N 43°32' E 007°02'4 8.5
2018-May-21 12:01N 43°29' E 006°59'  
2018-May-17 11:27N 43°18' E 007°00'716.9
2018-May-17 11:00N 43°23' E 007°08'1223.2
2018-May-17 10:30N 43°34' E 007°10'28 9.3
2018-May-17 07:28N 43°47' E 007°45'  
Track history (hours):
 
Tides and Currents Weather Stations Pressure Air Temp Water Temp Dewpoint Dewpoint Depression Visibility Wind Speed Wind Dir Waves Ship Positions

Lisa IV

Last reported at 2018-May-23 15:56 UTC. Time now 2018-May-24 10:07 UTC.
Position N 43°49' E 007°47'.

Length 48 m; draft 1.6 m.

Type: Pleasure craft. MMSI: 256499000.

Date/timePositionNaut miles runAvg speedWind from/ knotsBaromVisibWave heightAir tempDewpointWater temp
2018-May-23 15:56N 43°49' E 007°47'36 0.7
2018-May-21 15:23N 43°32' E 007°04'2 4.8
2018-May-21 15:00N 43°32' E 007°02'0 0.0
2018-May-21 14:30N 43°32' E 007°02'0 0.0
2018-May-21 14:00N 43°32' E 007°02'0 0.0
2018-May-21 13:30N 43°32' E 007°02'0 0.0
2018-May-21 13:00N 43°32' E 007°02'0 0.0
2018-May-21 12:30N 43°32' E 007°02'4 8.5
2018-May-21 12:01N 43°29' E 006°59'  
2018-May-17 11:27N 43°18' E 007°00'716.9
2018-May-17 11:00N 43°23' E 007°08'1223.2
2018-May-17 10:30N 43°34' E 007°10'28 9.3
2018-May-17 07:28N 43°47' E 007°45'  

Dump ship's entire track history